Terminal Aerodrome Forecast
Issued by NWS Sterling, VA

Home | Current Version | Previous Version | Text Only | Print | Product List | Glossary On
Versions: 1 2 3 4 5 6 7 8 9 10 11 12 13 14 15 16
000
FTUS41 KLWX 260531
TAFMRB
TAF
KMRB 260531Z 2606/2706 VRB03KT P6SM BKN025 BKN040
     FM260900 12004KT 5SM -DZ BR BKN015 OVC040
     FM261500 16009KT P6SM BKN015 OVC040
     FM261800 16010G18KT P6SM BKN025 OVC040
     FM270200 17009KT 5SM -SHRA BKN015 OVC040=

USA.gov is the U.S. government's official web portal to all federal, state and local government web resources and services.